sensor_id;sensor_type;location;lat;lon;timestamp;P1;durP1;ratioP1;P2;durP2;ratioP2
14681;SDS011;7429;52.498;13.480;2022-08-14T00:02:05;10.68;;;9.68;;
14681;SDS011;7429;52.498;13.480;2022-08-14T00:05:09;10.95;;;8.20;;
14681;SDS011;7429;52.498;13.480;2022-08-14T00:08:19;10.93;;;9.30;;
14681;SDS011;7429;52.498;13.480;2022-08-14T00:11:42;10.55;;;9.45;;
14681;SDS011;7429;52.498;13.480;2022-08-14T00:14:45;13.95;;;10.10;;
14681;SDS011;7429;52.498;13.480;2022-08-14T00:17:55;9.75;;;8.82;;
14681;SDS011;7429;52.498;13.480;2022-08-14T00:20:58;12.32;;;11.32;;
14681;SDS011;7429;52.498;13.480;2022-08-14T00:24:05;14.45;;;10.88;;
14681;SDS011;7429;52.498;13.480;2022-08-14T00:27:10;10.50;;;9.45;;
14681;SDS011;7429;52.498;13.480;2022-08-14T00:30:17;11.68;;;10.23;;
14681;SDS011;7429;52.498;13.480;2022-08-14T00:33:20;15.77;;;9.27;;
14681;SDS011;7429;52.498;13.480;2022-08-14T00:36:43;10.40;;;9.60;;
14681;SDS011;7429;52.498;13.480;2022-08-14T00:39:52;11.50;;;10.70;;
14681;SDS011;7429;52.498;13.480;2022-08-14T00:42:56;10.43;;;9.52;;
14681;SDS011;7429;52.498;13.480;2022-08-14T00:46:00;11.07;;;9.85;;
14681;SDS011;7429;52.498;13.480;2022-08-14T00:49:08;12.48;;;9.48;;
14681;SDS011;7429;52.498;13.480;2022-08-14T00:52:15;10.80;;;9.95;;
14681;SDS011;7429;52.498;13.480;2022-08-14T00:55:20;10.95;;;9.85;;
14681;SDS011;7429;52.498;13.480;2022-08-14T00:58:23;10.65;;;9.68;;
14681;SDS011;7429;52.498;13.480;2022-08-14T01:01:33;11.32;;;9.52;;
14681;SDS011;7429;52.498;13.480;2022-08-14T01:04:41;10.93;;;9.82;;
14681;SDS011;7429;52.498;13.480;2022-08-14T01:07:54;13.73;;;12.27;;
14681;SDS011;7429;52.498;13.480;2022-08-14T01:11:01;10.32;;;9.23;;
14681;SDS011;7429;52.498;13.480;2022-08-14T01:14:05;10.82;;;9.93;;
14681;SDS011;7429;52.498;13.480;2022-08-14T01:17:29;13.20;;;11.68;;
14681;SDS011;7429;52.498;13.480;2022-08-14T01:20:50;13.10;;;12.00;;
14681;SDS011;7429;52.498;13.480;2022-08-14T01:24:13;14.82;;;11.25;;
14681;SDS011;7429;52.498;13.480;2022-08-14T01:27:31;12.02;;;10.25;;
14681;SDS011;7429;52.498;13.480;2022-08-14T01:30:56;11.00;;;10.10;;
14681;SDS011;7429;52.498;13.480;2022-08-14T01:34:00;13.07;;;11.98;;
14681;SDS011;7429;52.498;13.480;2022-08-14T01:37:26;13.02;;;11.95;;
14681;SDS011;7429;52.498;13.480;2022-08-14T01:40:33;13.77;;;12.00;;
14681;SDS011;7429;52.498;13.480;2022-08-14T01:43:43;11.73;;;10.73;;
14681;SDS011;7429;52.498;13.480;2022-08-14T01:46:58;14.18;;;12.77;;
14681;SDS011;7429;52.498;13.480;2022-08-14T01:50:06;12.75;;;11.45;;
14681;SDS011;7429;52.498;13.480;2022-08-14T01:53:14;15.85;;;14.43;;
14681;SDS011;7429;52.498;13.480;2022-08-14T01:56:19;14.80;;;13.65;;
14681;SDS011;7429;52.498;13.480;2022-08-14T01:59:31;13.93;;;12.57;;
14681;SDS011;7429;52.498;13.480;2022-08-14T02:02:38;14.88;;;11.80;;
14681;SDS011;7429;52.498;13.480;2022-08-14T02:05:46;16.58;;;14.98;;
14681;SDS011;7429;52.498;13.480;2022-08-14T02:08:50;14.38;;;12.93;;
14681;SDS011;7429;52.498;13.480;2022-08-14T02:11:58;16.40;;;14.85;;
14681;SDS011;7429;52.498;13.480;2022-08-14T02:15:03;17.95;;;16.67;;
14681;SDS011;7429;52.498;13.480;2022-08-14T02:18:09;15.57;;;14.50;;
14681;SDS011;7429;52.498;13.480;2022-08-14T02:21:16;14.73;;;13.63;;
14681;SDS011;7429;52.498;13.480;2022-08-14T02:24:25;17.05;;;15.55;;
14681;SDS011;7429;52.498;13.480;2022-08-14T02:27:42;13.50;;;10.93;;
14681;SDS011;7429;52.498;13.480;2022-08-14T02:31:06;13.13;;;11.93;;
14681;SDS011;7429;52.498;13.480;2022-08-14T02:34:11;15.77;;;14.52;;
14681;SDS011;7429;52.498;13.480;2022-08-14T02:37:26;14.27;;;13.13;;
14681;SDS011;7429;52.498;13.480;2022-08-14T02:40:48;17.55;;;13.95;;
14681;SDS011;7429;52.498;13.480;2022-08-14T02:43:53;14.15;;;13.05;;
14681;SDS011;7429;52.498;13.480;2022-08-14T02:47:01;12.77;;;11.48;;
14681;SDS011;7429;52.498;13.480;2022-08-14T02:50:15;13.27;;;12.07;;
14681;SDS011;7429;52.498;13.480;2022-08-14T02:53:18;14.63;;;11.70;;
14681;SDS011;7429;52.498;13.480;2022-08-14T02:56:21;15.50;;;14.30;;
14681;SDS011;7429;52.498;13.480;2022-08-14T02:59:47;12.70;;;11.40;;
14681;SDS011;7429;52.498;13.480;2022-08-14T03:02:51;11.43;;;10.40;;
14681;SDS011;7429;52.498;13.480;2022-08-14T03:06:00;11.90;;;10.70;;
14681;SDS011;7429;52.498;13.480;2022-08-14T03:09:03;14.32;;;12.82;;
14681;SDS011;7429;52.498;13.480;2022-08-14T03:12:07;12.70;;;11.70;;
14681;SDS011;7429;52.498;13.480;2022-08-14T03:15:12;13.75;;;12.45;;
14681;SDS011;7429;52.498;13.480;2022-08-14T03:18:19;13.13;;;11.85;;
14681;SDS011;7429;52.498;13.480;2022-08-14T03:21:33;16.02;;;14.50;;
14681;SDS011;7429;52.498;13.480;2022-08-14T03:24:40;14.63;;;13.23;;
14681;SDS011;7429;52.498;13.480;2022-08-14T03:27:44;13.20;;;12.00;;
14681;SDS011;7429;52.498;13.480;2022-08-14T03:31:00;19.90;;;18.13;;
14681;SDS011;7429;52.498;13.480;2022-08-14T03:34:09;18.15;;;16.55;;
14681;SDS011;7429;52.498;13.480;2022-08-14T03:37:25;13.52;;;12.48;;
14681;SDS011;7429;52.498;13.480;2022-08-14T03:40:49;13.35;;;12.18;;
14681;SDS011;7429;52.498;13.480;2022-08-14T03:43:56;12.25;;;11.00;;
14681;SDS011;7429;52.498;13.480;2022-08-14T03:47:23;11.57;;;10.65;;
14681;SDS011;7429;52.498;13.480;2022-08-14T03:50:47;12.02;;;10.90;;
14681;SDS011;7429;52.498;13.480;2022-08-14T03:53:57;13.82;;;12.52;;
14681;SDS011;7429;52.498;13.480;2022-08-14T03:57:02;13.45;;;12.27;;
14681;SDS011;7429;52.498;13.480;2022-08-14T04:00:07;13.60;;;12.25;;
14681;SDS011;7429;52.498;13.480;2022-08-14T04:03:35;19.27;;;17.65;;
14681;SDS011;7429;52.498;13.480;2022-08-14T04:06:38;15.07;;;13.77;;
14681;SDS011;7429;52.498;13.480;2022-08-14T04:09:48;15.05;;;13.85;;
14681;SDS011;7429;52.498;13.480;2022-08-14T04:12:53;16.33;;;15.02;;
14681;SDS011;7429;52.498;13.480;2022-08-14T04:16:05;14.70;;;13.50;;
14681;SDS011;7429;52.498;13.480;2022-08-14T04:19:14;14.00;;;12.70;;
14681;SDS011;7429;52.498;13.480;2022-08-14T04:22:24;24.35;;;22.60;;
14681;SDS011;7429;52.498;13.480;2022-08-14T04:25:27;30.38;;;28.05;;
14681;SDS011;7429;52.498;13.480;2022-08-14T04:28:34;28.15;;;26.27;;
14681;SDS011;7429;52.498;13.480;2022-08-14T04:31:58;16.52;;;15.15;;
14681;SDS011;7429;52.498;13.480;2022-08-14T04:35:22;17.20;;;15.70;;
14681;SDS011;7429;52.498;13.480;2022-08-14T04:38:46;17.65;;;16.20;;
14681;SDS011;7429;52.498;13.480;2022-08-14T04:42:09;20.00;;;18.02;;
14681;SDS011;7429;52.498;13.480;2022-08-14T04:45:30;20.48;;;18.75;;
14681;SDS011;7429;52.498;13.480;2022-08-14T04:48:41;16.95;;;15.75;;
14681;SDS011;7429;52.498;13.480;2022-08-14T04:51:57;22.20;;;20.35;;
14681;SDS011;7429;52.498;13.480;2022-08-14T04:55:15;13.05;;;11.95;;
14681;SDS011;7429;52.498;13.480;2022-08-14T04:58:19;16.50;;;15.00;;
14681;SDS011;7429;52.498;13.480;2022-08-14T05:01:33;14.48;;;12.98;;
14681;SDS011;7429;52.498;13.480;2022-08-14T05:04:40;16.08;;;14.38;;
14681;SDS011;7429;52.498;13.480;2022-08-14T05:08:03;16.35;;;14.80;;
14681;SDS011;7429;52.498;13.480;2022-08-14T05:11:32;16.58;;;15.10;;
14681;SDS011;7429;52.498;13.480;2022-08-14T05:14:37;14.57;;;13.45;;
14681;SDS011;7429;52.498;13.480;2022-08-14T05:17:56;15.95;;;14.38;;
14681;SDS011;7429;52.498;13.480;2022-08-14T05:21:22;15.70;;;14.45;;
14681;SDS011;7429;52.498;13.480;2022-08-14T05:24:48;13.25;;;11.93;;
14681;SDS011;7429;52.498;13.480;2022-08-14T05:27:52;13.13;;;11.93;;
14681;SDS011;7429;52.498;13.480;2022-08-14T05:31:04;17.08;;;12.68;;
14681;SDS011;7429;52.498;13.480;2022-08-14T05:34:09;13.77;;;12.60;;
14681;SDS011;7429;52.498;13.480;2022-08-14T05:37:13;17.67;;;16.00;;
14681;SDS011;7429;52.498;13.480;2022-08-14T05:40:17;14.65;;;13.35;;
14681;SDS011;7429;52.498;13.480;2022-08-14T05:43:20;15.05;;;13.73;;
14681;SDS011;7429;52.498;13.480;2022-08-14T05:46:41;13.05;;;11.93;;
14681;SDS011;7429;52.498;13.480;2022-08-14T05:49:47;14.43;;;12.98;;
14681;SDS011;7429;52.498;13.480;2022-08-14T05:52:51;13.52;;;12.32;;
14681;SDS011;7429;52.498;13.480;2022-08-14T05:55:56;14.63;;;11.75;;
14681;SDS011;7429;52.498;13.480;2022-08-14T05:59:00;17.33;;;13.25;;
14681;SDS011;7429;52.498;13.480;2022-08-14T06:02:03;16.55;;;15.15;;
14681;SDS011;7429;52.498;13.480;2022-08-14T06:05:07;17.25;;;15.65;;
14681;SDS011;7429;52.498;13.480;2022-08-14T06:08:13;15.95;;;14.65;;
14681;SDS011;7429;52.498;13.480;2022-08-14T06:11:33;16.17;;;14.88;;
14681;SDS011;7429;52.498;13.480;2022-08-14T06:14:36;16.10;;;14.40;;
14681;SDS011;7429;52.498;13.480;2022-08-14T06:17:43;17.73;;;16.27;;
14681;SDS011;7429;52.498;13.480;2022-08-14T06:20:56;16.25;;;14.60;;
14681;SDS011;7429;52.498;13.480;2022-08-14T06:23:59;14.23;;;12.10;;
14681;SDS011;7429;52.498;13.480;2022-08-14T06:27:03;15.05;;;12.38;;
14681;SDS011;7429;52.498;13.480;2022-08-14T06:30:11;17.77;;;16.35;;
14681;SDS011;7429;52.498;13.480;2022-08-14T06:33:17;17.83;;;16.42;;
14681;SDS011;7429;52.498;13.480;2022-08-14T06:36:22;19.50;;;18.20;;
14681;SDS011;7429;52.498;13.480;2022-08-14T06:39:27;23.30;;;21.45;;
14681;SDS011;7429;52.498;13.480;2022-08-14T06:42:39;14.70;;;13.27;;
14681;SDS011;7429;52.498;13.480;2022-08-14T06:45:49;13.93;;;12.60;;
14681;SDS011;7429;52.498;13.480;2022-08-14T06:48:54;12.40;;;11.40;;
14681;SDS011;7429;52.498;13.480;2022-08-14T06:51:58;14.65;;;13.20;;
14681;SDS011;7429;52.498;13.480;2022-08-14T06:55:02;13.13;;;12.02;;
14681;SDS011;7429;52.498;13.480;2022-08-14T06:58:11;12.30;;;11.07;;
14681;SDS011;7429;52.498;13.480;2022-08-14T07:01:29;11.70;;;10.70;;
14681;SDS011;7429;52.498;13.480;2022-08-14T07:04:50;12.07;;;11.00;;
14681;SDS011;7429;52.498;13.480;2022-08-14T07:08:18;16.25;;;14.85;;
14681;SDS011;7429;52.498;13.480;2022-08-14T07:11:26;13.13;;;11.95;;
14681;SDS011;7429;52.498;13.480;2022-08-14T07:14:31;17.15;;;15.35;;
14681;SDS011;7429;52.498;13.480;2022-08-14T07:17:42;16.13;;;12.52;;
14681;SDS011;7429;52.498;13.480;2022-08-14T07:20:52;12.95;;;11.65;;
14681;SDS011;7429;52.498;13.480;2022-08-14T07:23:57;12.40;;;11.13;;
14681;SDS011;7429;52.498;13.480;2022-08-14T07:26:59;12.95;;;11.85;;
14681;SDS011;7429;52.498;13.480;2022-08-14T07:30:04;13.60;;;12.20;;
14681;SDS011;7429;52.498;13.480;2022-08-14T07:33:29;13.68;;;12.45;;
14681;SDS011;7429;52.498;13.480;2022-08-14T07:36:36;13.70;;;12.30;;
14681;SDS011;7429;52.498;13.480;2022-08-14T07:39:59;12.23;;;11.18;;
14681;SDS011;7429;52.498;13.480;2022-08-14T07:43:02;12.48;;;11.23;;
14681;SDS011;7429;52.498;13.480;2022-08-14T07:46:16;11.98;;;10.88;;
14681;SDS011;7429;52.498;13.480;2022-08-14T07:49:29;14.80;;;13.38;;
14681;SDS011;7429;52.498;13.480;2022-08-14T07:52:34;17.90;;;16.40;;
14681;SDS011;7429;52.498;13.480;2022-08-14T07:55:42;11.48;;;10.30;;
14681;SDS011;7429;52.498;13.480;2022-08-14T07:59:00;12.55;;;11.40;;
14681;SDS011;7429;52.498;13.480;2022-08-14T08:02:11;9.88;;;8.98;;
14681;SDS011;7429;52.498;13.480;2022-08-14T08:05:22;11.77;;;10.57;;
14681;SDS011;7429;52.498;13.480;2022-08-14T08:08:27;9.88;;;9.05;;
14681;SDS011;7429;52.498;13.480;2022-08-14T08:11:32;9.77;;;8.90;;
14681;SDS011;7429;52.498;13.480;2022-08-14T08:14:37;10.77;;;8.43;;
14681;SDS011;7429;52.498;13.480;2022-08-14T08:18:04;9.77;;;8.90;;
14681;SDS011;7429;52.498;13.480;2022-08-14T08:21:20;11.05;;;8.48;;
14681;SDS011;7429;52.498;13.480;2022-08-14T08:24:27;11.02;;;9.02;;
14681;SDS011;7429;52.498;13.480;2022-08-14T08:27:30;10.80;;;8.75;;
14681;SDS011;7429;52.498;13.480;2022-08-14T08:30:34;10.15;;;9.13;;
14681;SDS011;7429;52.498;13.480;2022-08-14T08:33:51;10.88;;;8.65;;
14681;SDS011;7429;52.498;13.480;2022-08-14T08:36:56;10.23;;;9.15;;
14681;SDS011;7429;52.498;13.480;2022-08-14T08:40:07;10.23;;;9.23;;
14681;SDS011;7429;52.498;13.480;2022-08-14T08:43:22;9.32;;;8.45;;
14681;SDS011;7429;52.498;13.480;2022-08-14T08:46:27;12.85;;;8.57;;
14681;SDS011;7429;52.498;13.480;2022-08-14T08:49:36;10.55;;;8.48;;
14681;SDS011;7429;52.498;13.480;2022-08-14T08:52:49;11.85;;;7.93;;
14681;SDS011;7429;52.498;13.480;2022-08-14T08:55:55;12.75;;;8.48;;
14681;SDS011;7429;52.498;13.480;2022-08-14T08:58:58;8.68;;;7.70;;
14681;SDS011;7429;52.498;13.480;2022-08-14T09:02:03;8.57;;;7.30;;
14681;SDS011;7429;52.498;13.480;2022-08-14T09:05:12;12.25;;;6.93;;
14681;SDS011;7429;52.498;13.480;2022-08-14T09:08:16;8.88;;;7.80;;
14681;SDS011;7429;52.498;13.480;2022-08-14T09:11:32;14.32;;;7.07;;
14681;SDS011;7429;52.498;13.480;2022-08-14T09:14:36;8.15;;;6.70;;
14681;SDS011;7429;52.498;13.480;2022-08-14T09:17:40;9.80;;;6.70;;
14681;SDS011;7429;52.498;13.480;2022-08-14T09:20:49;7.88;;;7.15;;
14681;SDS011;7429;52.498;13.480;2022-08-14T09:23:59;8.93;;;6.90;;
14681;SDS011;7429;52.498;13.480;2022-08-14T09:27:23;8.73;;;6.60;;
14681;SDS011;7429;52.498;13.480;2022-08-14T09:30:26;10.85;;;6.50;;
14681;SDS011;7429;52.498;13.480;2022-08-14T09:33:40;8.77;;;5.68;;
14681;SDS011;7429;52.498;13.480;2022-08-14T09:37:05;10.32;;;7.00;;
14681;SDS011;7429;52.498;13.480;2022-08-14T09:40:26;10.50;;;9.38;;
14681;SDS011;7429;52.498;13.480;2022-08-14T09:43:58;10.75;;;9.88;;
14681;SDS011;7429;52.498;13.480;2022-08-14T09:47:07;6.10;;;5.50;;
14681;SDS011;7429;52.498;13.480;2022-08-14T09:50:15;8.52;;;5.05;;
14681;SDS011;7429;52.498;13.480;2022-08-14T09:53:34;8.77;;;5.82;;
14681;SDS011;7429;52.498;13.480;2022-08-14T09:57:04;4.95;;;4.40;;
14681;SDS011;7429;52.498;13.480;2022-08-14T10:00:11;5.95;;;4.43;;
14681;SDS011;7429;52.498;13.480;2022-08-14T10:03:31;7.78;;;5.00;;
14681;SDS011;7429;52.498;13.480;2022-08-14T10:06:41;7.30;;;5.00;;
14681;SDS011;7429;52.498;13.480;2022-08-14T10:09:47;6.80;;;4.97;;
14681;SDS011;7429;52.498;13.480;2022-08-14T10:13:03;5.38;;;4.88;;
14681;SDS011;7429;52.498;13.480;2022-08-14T10:16:09;6.28;;;5.05;;
14681;SDS011;7429;52.498;13.480;2022-08-14T10:19:26;5.45;;;4.47;;
14681;SDS011;7429;52.498;13.480;2022-08-14T10:22:35;9.73;;;5.10;;
14681;SDS011;7429;52.498;13.480;2022-08-14T10:26:03;5.00;;;4.50;;
14681;SDS011;7429;52.498;13.480;2022-08-14T10:29:09;5.07;;;4.35;;
14681;SDS011;7429;52.498;13.480;2022-08-14T10:32:24;5.85;;;5.13;;
14681;SDS011;7429;52.498;13.480;2022-08-14T10:35:41;9.02;;;4.85;;
14681;SDS011;7429;52.498;13.480;2022-08-14T10:38:54;7.63;;;5.10;;
14681;SDS011;7429;52.498;13.480;2022-08-14T10:42:01;4.70;;;4.30;;
14681;SDS011;7429;52.498;13.480;2022-08-14T10:45:21;5.88;;;4.18;;
14681;SDS011;7429;52.498;13.480;2022-08-14T10:48:27;6.30;;;4.53;;
14681;SDS011;7429;52.498;13.480;2022-08-14T10:51:39;8.93;;;4.40;;
14681;SDS011;7429;52.498;13.480;2022-08-14T10:54:44;6.15;;;4.72;;
14681;SDS011;7429;52.498;13.480;2022-08-14T10:57:57;7.22;;;4.82;;
14681;SDS011;7429;52.498;13.480;2022-08-14T11:01:03;12.52;;;5.53;;
14681;SDS011;7429;52.498;13.480;2022-08-14T11:04:18;32.30;;;11.80;;
14681;SDS011;7429;52.498;13.480;2022-08-14T11:07:27;7.75;;;5.47;;
14681;SDS011;7429;52.498;13.480;2022-08-14T11:10:42;7.25;;;5.35;;
14681;SDS011;7429;52.498;13.480;2022-08-14T11:13:54;4.93;;;4.53;;
14681;SDS011;7429;52.498;13.480;2022-08-14T11:16:58;6.32;;;5.82;;
14681;SDS011;7429;52.498;13.480;2022-08-14T11:20:03;6.15;;;5.25;;
14681;SDS011;7429;52.498;13.480;2022-08-14T11:23:17;6.35;;;4.35;;
14681;SDS011;7429;52.498;13.480;2022-08-14T11:26:23;7.03;;;6.32;;
14681;SDS011;7429;52.498;13.480;2022-08-14T11:29:31;5.10;;;4.18;;
14681;SDS011;7429;52.498;13.480;2022-08-14T11:32:37;7.00;;;4.80;;
14681;SDS011;7429;52.498;13.480;2022-08-14T11:35:46;4.93;;;4.50;;
14681;SDS011;7429;52.498;13.480;2022-08-14T11:38:50;8.32;;;5.57;;
14681;SDS011;7429;52.498;13.480;2022-08-14T11:41:54;5.70;;;5.30;;
14681;SDS011;7429;52.498;13.480;2022-08-14T11:45:02;8.32;;;4.95;;
14681;SDS011;7429;52.498;13.480;2022-08-14T11:48:18;5.13;;;4.60;;
14681;SDS011;7429;52.498;13.480;2022-08-14T11:51:43;5.38;;;4.72;;
14681;SDS011;7429;52.498;13.480;2022-08-14T11:54:55;7.93;;;5.60;;
14681;SDS011;7429;52.498;13.480;2022-08-14T11:58:01;5.13;;;4.63;;
14681;SDS011;7429;52.498;13.480;2022-08-14T12:01:10;5.35;;;4.85;;
14681;SDS011;7429;52.498;13.480;2022-08-14T12:04:14;8.20;;;4.97;;
14681;SDS011;7429;52.498;13.480;2022-08-14T12:07:33;5.90;;;4.50;;
14681;SDS011;7429;52.498;13.480;2022-08-14T12:10:48;7.13;;;4.80;;
14681;SDS011;7429;52.498;13.480;2022-08-14T12:14:05;10.07;;;5.35;;
14681;SDS011;7429;52.498;13.480;2022-08-14T12:17:33;7.28;;;4.93;;
14681;SDS011;7429;52.498;13.480;2022-08-14T12:20:50;7.03;;;5.65;;
14681;SDS011;7429;52.498;13.480;2022-08-14T12:24:01;9.57;;;5.45;;
14681;SDS011;7429;52.498;13.480;2022-08-14T12:27:09;7.60;;;5.43;;
14681;SDS011;7429;52.498;13.480;2022-08-14T12:30:24;5.57;;;5.18;;
14681;SDS011;7429;52.498;13.480;2022-08-14T12:33:41;7.82;;;4.50;;
14681;SDS011;7429;52.498;13.480;2022-08-14T12:37:00;4.68;;;4.28;;
14681;SDS011;7429;52.498;13.480;2022-08-14T12:40:13;7.45;;;4.80;;
14681;SDS011;7429;52.498;13.480;2022-08-14T12:43:21;4.85;;;4.20;;
14681;SDS011;7429;52.498;13.480;2022-08-14T12:46:26;5.38;;;4.95;;
14681;SDS011;7429;52.498;13.480;2022-08-14T12:49:33;4.70;;;4.18;;
14681;SDS011;7429;52.498;13.480;2022-08-14T12:52:37;4.60;;;4.03;;
14681;SDS011;7429;52.498;13.480;2022-08-14T12:56:02;7.20;;;4.88;;
14681;SDS011;7429;52.498;13.480;2022-08-14T12:59:28;5.45;;;4.80;;
14681;SDS011;7429;52.498;13.480;2022-08-14T13:02:38;6.95;;;4.75;;
14681;SDS011;7429;52.498;13.480;2022-08-14T13:05:47;6.60;;;4.22;;
14681;SDS011;7429;52.498;13.480;2022-08-14T13:08:53;6.38;;;5.25;;
14681;SDS011;7429;52.498;13.480;2022-08-14T13:12:02;4.93;;;4.47;;
14681;SDS011;7429;52.498;13.480;2022-08-14T13:15:26;5.82;;;4.45;;
14681;SDS011;7429;52.498;13.480;2022-08-14T13:18:30;4.88;;;4.47;;
14681;SDS011;7429;52.498;13.480;2022-08-14T13:21:39;5.68;;;4.05;;
14681;SDS011;7429;52.498;13.480;2022-08-14T13:25:04;7.38;;;4.20;;
14681;SDS011;7429;52.498;13.480;2022-08-14T13:28:10;4.38;;;3.97;;
14681;SDS011;7429;52.498;13.480;2022-08-14T13:31:33;4.20;;;3.35;;
14681;SDS011;7429;52.498;13.480;2022-08-14T13:34:41;5.03;;;3.80;;
14681;SDS011;7429;52.498;13.480;2022-08-14T13:37:48;3.92;;;3.33;;
14681;SDS011;7429;52.498;13.480;2022-08-14T13:40:55;3.80;;;3.42;;
14681;SDS011;7429;52.498;13.480;2022-08-14T13:43:59;5.25;;;3.90;;
14681;SDS011;7429;52.498;13.480;2022-08-14T13:47:02;4.55;;;3.78;;
14681;SDS011;7429;52.498;13.480;2022-08-14T13:50:10;4.32;;;3.63;;
14681;SDS011;7429;52.498;13.480;2022-08-14T13:53:22;5.50;;;3.50;;
14681;SDS011;7429;52.498;13.480;2022-08-14T13:56:37;5.57;;;3.95;;
14681;SDS011;7429;52.498;13.480;2022-08-14T13:59:43;4.50;;;3.85;;
14681;SDS011;7429;52.498;13.480;2022-08-14T14:02:51;5.45;;;4.30;;
14681;SDS011;7429;52.498;13.480;2022-08-14T14:05:57;4.15;;;3.78;;
14681;SDS011;7429;52.498;13.480;2022-08-14T14:09:05;5.35;;;3.60;;
14681;SDS011;7429;52.498;13.480;2022-08-14T14:12:12;4.13;;;3.58;;
14681;SDS011;7429;52.498;13.480;2022-08-14T14:15:36;7.40;;;4.35;;
14681;SDS011;7429;52.498;13.480;2022-08-14T14:18:58;5.50;;;3.70;;
14681;SDS011;7429;52.498;13.480;2022-08-14T14:22:11;4.25;;;3.85;;
14681;SDS011;7429;52.498;13.480;2022-08-14T14:25:40;4.95;;;3.22;;
14681;SDS011;7429;52.498;13.480;2022-08-14T14:28:57;5.38;;;3.17;;
14681;SDS011;7429;52.498;13.480;2022-08-14T14:32:02;3.88;;;3.58;;
14681;SDS011;7429;52.498;13.480;2022-08-14T14:35:10;5.22;;;3.97;;
14681;SDS011;7429;52.498;13.480;2022-08-14T14:38:17;4.18;;;3.25;;
14681;SDS011;7429;52.498;13.480;2022-08-14T14:41:23;5.82;;;5.43;;
14681;SDS011;7429;52.498;13.480;2022-08-14T14:44:39;8.80;;;4.13;;
14681;SDS011;7429;52.498;13.480;2022-08-14T14:47:44;3.80;;;3.22;;
14681;SDS011;7429;52.498;13.480;2022-08-14T14:50:49;3.95;;;3.15;;
14681;SDS011;7429;52.498;13.480;2022-08-14T14:53:53;4.30;;;3.53;;
14681;SDS011;7429;52.498;13.480;2022-08-14T14:57:00;5.20;;;3.10;;
14681;SDS011;7429;52.498;13.480;2022-08-14T15:00:10;3.60;;;3.10;;
14681;SDS011;7429;52.498;13.480;2022-08-14T15:03:20;9.32;;;3.28;;
14681;SDS011;7429;52.498;13.480;2022-08-14T15:06:23;8.43;;;4.30;;
14681;SDS011;7429;52.498;13.480;2022-08-14T15:09:31;5.32;;;3.55;;
14681;SDS011;7429;52.498;13.480;2022-08-14T15:12:36;6.25;;;3.80;;
14681;SDS011;7429;52.498;13.480;2022-08-14T15:15:58;5.32;;;3.65;;
14681;SDS011;7429;52.498;13.480;2022-08-14T15:19:01;3.75;;;3.38;;
14681;SDS011;7429;52.498;13.480;2022-08-14T15:22:06;4.47;;;3.70;;
14681;SDS011;7429;52.498;13.480;2022-08-14T15:25:11;4.22;;;3.83;;
14681;SDS011;7429;52.498;13.480;2022-08-14T15:28:20;13.15;;;12.30;;
14681;SDS011;7429;52.498;13.480;2022-08-14T15:31:23;4.47;;;3.10;;
14681;SDS011;7429;52.498;13.480;2022-08-14T15:34:26;3.83;;;3.50;;
14681;SDS011;7429;52.498;13.480;2022-08-14T15:37:48;4.55;;;3.28;;
14681;SDS011;7429;52.498;13.480;2022-08-14T15:40:56;7.18;;;3.17;;
14681;SDS011;7429;52.498;13.480;2022-08-14T15:44:10;7.38;;;3.75;;
14681;SDS011;7429;52.498;13.480;2022-08-14T15:47:28;3.75;;;3.50;;
14681;SDS011;7429;52.498;13.480;2022-08-14T15:50:34;4.75;;;3.58;;
14681;SDS011;7429;52.498;13.480;2022-08-14T15:53:43;4.55;;;3.53;;
14681;SDS011;7429;52.498;13.480;2022-08-14T15:56:56;3.95;;;3.42;;
14681;SDS011;7429;52.498;13.480;2022-08-14T16:00:03;5.70;;;5.30;;
14681;SDS011;7429;52.498;13.480;2022-08-14T16:03:45;3.42;;;3.22;;
14681;SDS011;7429;52.498;13.480;2022-08-14T16:06:49;4.70;;;3.17;;
14681;SDS011;7429;52.498;13.480;2022-08-14T16:09:56;4.80;;;4.40;;
14681;SDS011;7429;52.498;13.480;2022-08-14T16:13:19;5.07;;;4.00;;
14681;SDS011;7429;52.498;13.480;2022-08-14T16:16:44;4.25;;;3.95;;
14681;SDS011;7429;52.498;13.480;2022-08-14T16:20:00;7.38;;;3.38;;
14681;SDS011;7429;52.498;13.480;2022-08-14T16:23:07;5.55;;;3.47;;
14681;SDS011;7429;52.498;13.480;2022-08-14T16:26:14;4.03;;;3.60;;
14681;SDS011;7429;52.498;13.480;2022-08-14T16:29:30;4.65;;;4.07;;
14681;SDS011;7429;52.498;13.480;2022-08-14T16:32:37;5.25;;;4.40;;
14681;SDS011;7429;52.498;13.480;2022-08-14T16:35:56;5.32;;;3.90;;
14681;SDS011;7429;52.498;13.480;2022-08-14T16:39:03;6.22;;;3.95;;
14681;SDS011;7429;52.498;13.480;2022-08-14T16:42:11;5.00;;;4.47;;
14681;SDS011;7429;52.498;13.480;2022-08-14T16:45:35;6.53;;;5.15;;
14681;SDS011;7429;52.498;13.480;2022-08-14T16:48:46;6.82;;;5.15;;
14681;SDS011;7429;52.498;13.480;2022-08-14T16:51:59;5.85;;;4.68;;
14681;SDS011;7429;52.498;13.480;2022-08-14T16:55:24;8.52;;;4.75;;
14681;SDS011;7429;52.498;13.480;2022-08-14T16:58:31;6.75;;;5.35;;
14681;SDS011;7429;52.498;13.480;2022-08-14T17:01:35;5.10;;;4.70;;
14681;SDS011;7429;52.498;13.480;2022-08-14T17:04:42;5.90;;;5.40;;
14681;SDS011;7429;52.498;13.480;2022-08-14T17:08:05;7.45;;;6.68;;
14681;SDS011;7429;52.498;13.480;2022-08-14T17:11:39;5.22;;;4.72;;
14681;SDS011;7429;52.498;13.480;2022-08-14T17:14:56;11.00;;;6.05;;
14681;SDS011;7429;52.498;13.480;2022-08-14T17:18:10;7.88;;;6.72;;
14681;SDS011;7429;52.498;13.480;2022-08-14T17:21:32;8.82;;;6.15;;
14681;SDS011;7429;52.498;13.480;2022-08-14T17:24:42;8.00;;;7.07;;
14681;SDS011;7429;52.498;13.480;2022-08-14T17:28:10;7.07;;;6.43;;
14681;SDS011;7429;52.498;13.480;2022-08-14T17:31:35;7.10;;;5.55;;
14681;SDS011;7429;52.498;13.480;2022-08-14T17:34:59;8.23;;;6.00;;
14681;SDS011;7429;52.498;13.480;2022-08-14T17:38:08;6.95;;;6.28;;
14681;SDS011;7429;52.498;13.480;2022-08-14T17:41:32;6.90;;;5.53;;
14681;SDS011;7429;52.498;13.480;2022-08-14T17:44:44;6.53;;;5.25;;
14681;SDS011;7429;52.498;13.480;2022-08-14T17:47:48;7.85;;;5.65;;
14681;SDS011;7429;52.498;13.480;2022-08-14T17:50:52;6.97;;;6.15;;
14681;SDS011;7429;52.498;13.480;2022-08-14T17:54:03;8.85;;;6.03;;
14681;SDS011;7429;52.498;13.480;2022-08-14T17:57:09;8.02;;;7.43;;
14681;SDS011;7429;52.498;13.480;2022-08-14T18:00:23;7.72;;;6.10;;
14681;SDS011;7429;52.498;13.480;2022-08-14T18:04:14;7.90;;;5.47;;
14681;SDS011;7429;52.498;13.480;2022-08-14T18:07:59;6.13;;;5.53;;
14681;SDS011;7429;52.498;13.480;2022-08-14T18:12:00;7.78;;;5.78;;
14681;SDS011;7429;52.498;13.480;2022-08-14T18:16:01;6.60;;;5.88;;
14681;SDS011;7429;52.498;13.480;2022-08-14T18:19:39;7.30;;;6.70;;
14681;SDS011;7429;52.498;13.480;2022-08-14T18:23:46;13.98;;;6.57;;
14681;SDS011;7429;52.498;13.480;2022-08-14T18:27:50;10.75;;;6.28;;
14681;SDS011;7429;52.498;13.480;2022-08-14T18:31:58;8.15;;;5.60;;
14681;SDS011;7429;52.498;13.480;2022-08-14T18:35:03;6.78;;;6.07;;
14681;SDS011;7429;52.498;13.480;2022-08-14T18:38:15;7.00;;;6.30;;
14681;SDS011;7429;52.498;13.480;2022-08-14T18:41:44;6.28;;;5.63;;
14681;SDS011;7429;52.498;13.480;2022-08-14T18:45:05;7.68;;;6.60;;
14681;SDS011;7429;52.498;13.480;2022-08-14T18:48:26;14.05;;;6.30;;
14681;SDS011;7429;52.498;13.480;2022-08-14T18:58:54;8.55;;;6.93;;
14681;SDS011;7429;52.498;13.480;2022-08-14T19:05:56;8.40;;;7.10;;
14681;SDS011;7429;52.498;13.480;2022-08-14T19:08:59;8.38;;;7.10;;
14681;SDS011;7429;52.498;13.480;2022-08-14T19:12:04;7.72;;;6.85;;
14681;SDS011;7429;52.498;13.480;2022-08-14T19:15:17;13.05;;;7.13;;